sensor_id;sensor_type;location;lat;lon;timestamp;temperature;humidity
32215;DHT22;18708;53.124;23.190;2023-04-08T00:01:07;0.20;99.90
32215;DHT22;18708;53.124;23.190;2023-04-08T00:03:33;0.20;99.90
32215;DHT22;18708;53.124;23.190;2023-04-08T00:05:58;0.10;99.90
32215;DHT22;18708;53.124;23.190;2023-04-08T00:08:27;0.10;99.90
32215;DHT22;18708;53.124;23.190;2023-04-08T00:10:52;0.00;99.90
32215;DHT22;18708;53.124;23.190;2023-04-08T00:13:18;0.00;99.90
32215;DHT22;18708;53.124;23.190;2023-04-08T00:15:44;0.00;99.90
32215;DHT22;18708;53.124;23.190;2023-04-08T00:18:10;-0.10;99.90
32215;DHT22;18708;53.124;23.190;2023-04-08T00:20:35;-0.10;99.90
32215;DHT22;18708;53.124;23.190;2023-04-08T00:23:01;-0.10;99.90
32215;DHT22;18708;53.124;23.190;2023-04-08T00:25:27;-0.10;99.90
32215;DHT22;18708;53.124;23.190;2023-04-08T00:27:53;-0.20;99.90
32215;DHT22;18708;53.124;23.190;2023-04-08T00:30:18;-0.20;99.90
32215;DHT22;18708;53.124;23.190;2023-04-08T00:32:44;-0.20;99.90
32215;DHT22;18708;53.124;23.190;2023-04-08T00:35:10;-0.20;99.90
32215;DHT22;18708;53.124;23.190;2023-04-08T00:37:37;-0.30;99.90
32215;DHT22;18708;53.124;23.190;2023-04-08T00:40:03;-0.40;99.90
32215;DHT22;18708;53.124;23.190;2023-04-08T00:42:29;-0.40;99.90
32215;DHT22;18708;53.124;23.190;2023-04-08T00:44:55;-0.40;99.90
32215;DHT22;18708;53.124;23.190;2023-04-08T00:47:21;-0.40;99.90
32215;DHT22;18708;53.124;23.190;2023-04-08T00:49:47;-0.50;99.90
32215;DHT22;18708;53.124;23.190;2023-04-08T00:52:12;-0.50;99.90
32215;DHT22;18708;53.124;23.190;2023-04-08T00:54:38;-0.60;99.90
32215;DHT22;18708;53.124;23.190;2023-04-08T00:57:05;-0.50;99.90
32215;DHT22;18708;53.124;23.190;2023-04-08T00:59:31;-0.60;99.90
32215;DHT22;18708;53.124;23.190;2023-04-08T01:04:49;-0.70;99.90
32215;DHT22;18708;53.124;23.190;2023-04-08T01:07:30;-0.80;99.90
32215;DHT22;18708;53.124;23.190;2023-04-08T01:10:05;-0.80;99.90
32215;DHT22;18708;53.124;23.190;2023-04-08T01:12:36;-0.80;99.90
32215;DHT22;18708;53.124;23.190;2023-04-08T01:15:06;-0.80;99.90
32215;DHT22;18708;53.124;23.190;2023-04-08T01:17:33;-0.80;99.90
32215;DHT22;18708;53.124;23.190;2023-04-08T01:20:00;-0.80;99.90
32215;DHT22;18708;53.124;23.190;2023-04-08T01:25:19;-0.80;99.90
32215;DHT22;18708;53.124;23.190;2023-04-08T01:27:47;-0.90;99.90
32215;DHT22;18708;53.124;23.190;2023-04-08T01:30:16;-1.00;99.90
32215;DHT22;18708;53.124;23.190;2023-04-08T01:32:43;-0.90;99.90
32215;DHT22;18708;53.124;23.190;2023-04-08T01:35:11;-1.00;99.90
32215;DHT22;18708;53.124;23.190;2023-04-08T01:37:38;-0.90;99.90
32215;DHT22;18708;53.124;23.190;2023-04-08T01:40:06;-1.00;99.90
32215;DHT22;18708;53.124;23.190;2023-04-08T01:42:34;-0.90;99.90
32215;DHT22;18708;53.124;23.190;2023-04-08T01:45:01;-1.00;99.90
32215;DHT22;18708;53.124;23.190;2023-04-08T01:47:28;-1.00;99.90
32215;DHT22;18708;53.124;23.190;2023-04-08T01:49:55;-1.10;99.90
32215;DHT22;18708;53.124;23.190;2023-04-08T01:52:22;-1.20;99.90
32215;DHT22;18708;53.124;23.190;2023-04-08T01:54:50;-1.20;99.90
32215;DHT22;18708;53.124;23.190;2023-04-08T01:57:23;-1.20;99.90
32215;DHT22;18708;53.124;23.190;2023-04-08T01:59:52;-1.30;99.90
32215;DHT22;18708;53.124;23.190;2023-04-08T02:02:21;-1.30;99.90
32215;DHT22;18708;53.124;23.190;2023-04-08T02:04:49;-1.30;99.90
32215;DHT22;18708;53.124;23.190;2023-04-08T02:07:14;-1.40;99.90
32215;DHT22;18708;53.124;23.190;2023-04-08T02:09:40;-1.40;99.90
32215;DHT22;18708;53.124;23.190;2023-04-08T02:12:06;-1.40;99.90
32215;DHT22;18708;53.124;23.190;2023-04-08T02:14:32;-1.40;99.90
32215;DHT22;18708;53.124;23.190;2023-04-08T02:17:07;-1.40;99.90
32215;DHT22;18708;53.124;23.190;2023-04-08T02:19:43;-1.50;99.90
32215;DHT22;18708;53.124;23.190;2023-04-08T02:22:30;-1.50;99.90
32215;DHT22;18708;53.124;23.190;2023-04-08T02:24:57;-1.40;99.90
32215;DHT22;18708;53.124;23.190;2023-04-08T02:27:24;-1.40;99.90
32215;DHT22;18708;53.124;23.190;2023-04-08T02:29:54;-1.50;99.90
32215;DHT22;18708;53.124;23.190;2023-04-08T02:32:21;-1.50;99.90
32215;DHT22;18708;53.124;23.190;2023-04-08T02:34:48;-1.60;99.90
32215;DHT22;18708;53.124;23.190;2023-04-08T02:37:14;-1.60;99.90
32215;DHT22;18708;53.124;23.190;2023-04-08T02:39:40;-1.50;99.90
32215;DHT22;18708;53.124;23.190;2023-04-08T02:42:06;-1.60;99.90
32215;DHT22;18708;53.124;23.190;2023-04-08T02:44:31;-1.70;99.90
32215;DHT22;18708;53.124;23.190;2023-04-08T02:46:57;-1.70;99.90
32215;DHT22;18708;53.124;23.190;2023-04-08T02:49:23;-1.70;99.90
32215;DHT22;18708;53.124;23.190;2023-04-08T02:51:48;-1.70;99.90
32215;DHT22;18708;53.124;23.190;2023-04-08T02:54:14;-1.70;99.90
32215;DHT22;18708;53.124;23.190;2023-04-08T02:56:40;-1.70;99.90
32215;DHT22;18708;53.124;23.190;2023-04-08T02:59:06;-1.70;99.90
32215;DHT22;18708;53.124;23.190;2023-04-08T03:01:31;-1.60;99.90
32215;DHT22;18708;53.124;23.190;2023-04-08T03:03:57;-1.70;99.90
32215;DHT22;18708;53.124;23.190;2023-04-08T03:06:22;-1.70;99.90
32215;DHT22;18708;53.124;23.190;2023-04-08T03:08:48;-1.80;99.90
32215;DHT22;18708;53.124;23.190;2023-04-08T03:11:14;-1.80;99.90
32215;DHT22;18708;53.124;23.190;2023-04-08T03:13:39;-1.90;99.90
32215;DHT22;18708;53.124;23.190;2023-04-08T03:16:05;-1.80;99.90
32215;DHT22;18708;53.124;23.190;2023-04-08T03:18:31;-1.80;99.90
32215;DHT22;18708;53.124;23.190;2023-04-08T03:20:57;-1.80;99.90
32215;DHT22;18708;53.124;23.190;2023-04-08T03:23:22;-1.80;99.90
32215;DHT22;18708;53.124;23.190;2023-04-08T03:25:48;-1.80;99.90
32215;DHT22;18708;53.124;23.190;2023-04-08T03:28:14;-1.80;99.90
32215;DHT22;18708;53.124;23.190;2023-04-08T03:30:39;-1.80;99.90
32215;DHT22;18708;53.124;23.190;2023-04-08T03:33:05;-1.90;99.90
32215;DHT22;18708;53.124;23.190;2023-04-08T03:35:32;-1.90;99.90
32215;DHT22;18708;53.124;23.190;2023-04-08T03:37:58;-1.90;99.90
32215;DHT22;18708;53.124;23.190;2023-04-08T03:40:24;-1.90;99.90
32215;DHT22;18708;53.124;23.190;2023-04-08T03:42:49;-1.90;99.90
32215;DHT22;18708;53.124;23.190;2023-04-08T03:45:15;-2.00;99.90
32215;DHT22;18708;53.124;23.190;2023-04-08T03:47:41;-2.00;99.90
32215;DHT22;18708;53.124;23.190;2023-04-08T03:50:07;-2.10;99.90
32215;DHT22;18708;53.124;23.190;2023-04-08T03:52:32;-2.00;99.90
32215;DHT22;18708;53.124;23.190;2023-04-08T03:54:58;-2.00;99.90
32215;DHT22;18708;53.124;23.190;2023-04-08T03:57:24;-1.90;99.90
32215;DHT22;18708;53.124;23.190;2023-04-08T03:59:49;-2.00;99.90
32215;DHT22;18708;53.124;23.190;2023-04-08T04:02:15;-2.00;99.90
32215;DHT22;18708;53.124;23.190;2023-04-08T04:04:41;-2.00;99.90
32215;DHT22;18708;53.124;23.190;2023-04-08T04:07:06;-2.00;99.90
32215;DHT22;18708;53.124;23.190;2023-04-08T04:09:32;-2.00;99.90
32215;DHT22;18708;53.124;23.190;2023-04-08T04:11:57;-2.00;99.90
32215;DHT22;18708;53.124;23.190;2023-04-08T04:14:23;-2.00;99.90
32215;DHT22;18708;53.124;23.190;2023-04-08T04:16:49;-2.00;99.90
32215;DHT22;18708;53.124;23.190;2023-04-08T04:19:14;-2.00;99.90
32215;DHT22;18708;53.124;23.190;2023-04-08T04:21:42;-2.00;99.90
32215;DHT22;18708;53.124;23.190;2023-04-08T04:24:07;-1.90;99.90
32215;DHT22;18708;53.124;23.190;2023-04-08T04:26:33;-1.70;99.90
32215;DHT22;18708;53.124;23.190;2023-04-08T04:28:59;-1.70;99.90
32215;DHT22;18708;53.124;23.190;2023-04-08T04:31:24;-1.70;99.90
32215;DHT22;18708;53.124;23.190;2023-04-08T04:33:54;-1.40;99.90
32215;DHT22;18708;53.124;23.190;2023-04-08T04:36:19;-1.30;99.90
32215;DHT22;18708;53.124;23.190;2023-04-08T04:38:45;-1.40;99.90
32215;DHT22;18708;53.124;23.190;2023-04-08T04:41:11;-1.40;99.90
32215;DHT22;18708;53.124;23.190;2023-04-08T04:43:37;-1.30;99.90
32215;DHT22;18708;53.124;23.190;2023-04-08T04:46:03;-1.30;99.90
32215;DHT22;18708;53.124;23.190;2023-04-08T04:48:32;-1.20;99.90
32215;DHT22;18708;53.124;23.190;2023-04-08T04:50:58;-1.10;99.90
32215;DHT22;18708;53.124;23.190;2023-04-08T04:53:25;-1.00;99.90
32215;DHT22;18708;53.124;23.190;2023-04-08T04:55:51;-0.90;99.90
32215;DHT22;18708;53.124;23.190;2023-04-08T04:58:17;-0.80;99.90
32215;DHT22;18708;53.124;23.190;2023-04-08T05:00:43;-0.60;99.90
32215;DHT22;18708;53.124;23.190;2023-04-08T05:03:09;-0.30;99.90
32215;DHT22;18708;53.124;23.190;2023-04-08T05:05:35;-0.20;99.90
32215;DHT22;18708;53.124;23.190;2023-04-08T05:08:01;-0.20;99.90
32215;DHT22;18708;53.124;23.190;2023-04-08T05:10:26;-0.20;99.90
32215;DHT22;18708;53.124;23.190;2023-04-08T05:12:52;-0.10;99.90
32215;DHT22;18708;53.124;23.190;2023-04-08T05:15:18;0.00;99.90
32215;DHT22;18708;53.124;23.190;2023-04-08T05:17:43;0.10;99.90
32215;DHT22;18708;53.124;23.190;2023-04-08T05:20:09;0.30;99.90
32215;DHT22;18708;53.124;23.190;2023-04-08T05:22:35;0.40;99.90
32215;DHT22;18708;53.124;23.190;2023-04-08T05:25:01;0.50;99.90
32215;DHT22;18708;53.124;23.190;2023-04-08T05:27:27;0.50;99.90
32215;DHT22;18708;53.124;23.190;2023-04-08T05:29:55;0.70;99.90
32215;DHT22;18708;53.124;23.190;2023-04-08T05:32:20;0.70;99.90
32215;DHT22;18708;53.124;23.190;2023-04-08T05:34:46;0.80;99.90
32215;DHT22;18708;53.124;23.190;2023-04-08T05:37:12;0.90;99.90
32215;DHT22;18708;53.124;23.190;2023-04-08T05:39:37;1.00;99.90
32215;DHT22;18708;53.124;23.190;2023-04-08T05:42:03;1.10;99.90
32215;DHT22;18708;53.124;23.190;2023-04-08T05:44:29;1.20;99.90
32215;DHT22;18708;53.124;23.190;2023-04-08T05:46:55;1.20;99.90
32215;DHT22;18708;53.124;23.190;2023-04-08T05:49:22;1.40;99.90
32215;DHT22;18708;53.124;23.190;2023-04-08T05:51:47;1.40;99.90
32215;DHT22;18708;53.124;23.190;2023-04-08T05:54:13;1.50;99.90
32215;DHT22;18708;53.124;23.190;2023-04-08T05:56:39;1.60;99.90
32215;DHT22;18708;53.124;23.190;2023-04-08T05:59:04;1.70;99.90
32215;DHT22;18708;53.124;23.190;2023-04-08T06:01:30;1.70;99.90
32215;DHT22;18708;53.124;23.190;2023-04-08T06:03:56;1.80;99.90
32215;DHT22;18708;53.124;23.190;2023-04-08T06:06:22;1.90;99.90
32215;DHT22;18708;53.124;23.190;2023-04-08T06:08:49;1.90;99.90
32215;DHT22;18708;53.124;23.190;2023-04-08T06:11:15;2.00;99.90
32215;DHT22;18708;53.124;23.190;2023-04-08T06:13:41;2.10;99.90
32215;DHT22;18708;53.124;23.190;2023-04-08T06:16:14;2.20;99.90
32215;DHT22;18708;53.124;23.190;2023-04-08T06:18:41;2.30;99.90
32215;DHT22;18708;53.124;23.190;2023-04-08T06:21:07;2.40;99.90
32215;DHT22;18708;53.124;23.190;2023-04-08T06:23:33;2.50;99.90
32215;DHT22;18708;53.124;23.190;2023-04-08T06:25:59;2.60;99.90
32215;DHT22;18708;53.124;23.190;2023-04-08T06:28:24;2.70;99.90
32215;DHT22;18708;53.124;23.190;2023-04-08T06:30:50;2.70;99.90
32215;DHT22;18708;53.124;23.190;2023-04-08T06:33:16;2.80;99.90
32215;DHT22;18708;53.124;23.190;2023-04-08T06:35:42;2.90;99.90
32215;DHT22;18708;53.124;23.190;2023-04-08T06:38:07;3.00;99.90
32215;DHT22;18708;53.124;23.190;2023-04-08T06:40:33;3.10;99.90
32215;DHT22;18708;53.124;23.190;2023-04-08T06:42:58;3.20;99.90
32215;DHT22;18708;53.124;23.190;2023-04-08T06:45:25;3.30;99.90
32215;DHT22;18708;53.124;23.190;2023-04-08T06:47:51;3.50;99.90
32215;DHT22;18708;53.124;23.190;2023-04-08T06:50:17;3.60;99.90
32215;DHT22;18708;53.124;23.190;2023-04-08T06:52:42;3.80;99.90
32215;DHT22;18708;53.124;23.190;2023-04-08T06:55:08;3.90;99.90
32215;DHT22;18708;53.124;23.190;2023-04-08T06:57:46;4.00;99.90
32215;DHT22;18708;53.124;23.190;2023-04-08T07:00:12;4.20;99.90
32215;DHT22;18708;53.124;23.190;2023-04-08T07:02:38;4.30;99.90
32215;DHT22;18708;53.124;23.190;2023-04-08T07:05:07;4.60;99.90
32215;DHT22;18708;53.124;23.190;2023-04-08T07:07:33;4.70;99.90
32215;DHT22;18708;53.124;23.190;2023-04-08T07:09:58;4.90;99.90
32215;DHT22;18708;53.124;23.190;2023-04-08T07:12:24;5.20;99.90
32215;DHT22;18708;53.124;23.190;2023-04-08T07:14:50;5.30;99.90
32215;DHT22;18708;53.124;23.190;2023-04-08T07:17:17;5.50;99.90
32215;DHT22;18708;53.124;23.190;2023-04-08T07:19:43;5.60;99.90
32215;DHT22;18708;53.124;23.190;2023-04-08T07:22:09;5.80;99.90
32215;DHT22;18708;53.124;23.190;2023-04-08T07:24:36;5.90;99.90
32215;DHT22;18708;53.124;23.190;2023-04-08T07:27:02;6.10;99.90
32215;DHT22;18708;53.124;23.190;2023-04-08T07:29:28;6.30;99.90
32215;DHT22;18708;53.124;23.190;2023-04-08T07:31:53;6.40;99.90
32215;DHT22;18708;53.124;23.190;2023-04-08T07:34:22;6.60;99.90
32215;DHT22;18708;53.124;23.190;2023-04-08T07:36:47;6.80;99.90
32215;DHT22;18708;53.124;23.190;2023-04-08T07:39:13;6.90;68.80
32215;DHT22;18708;53.124;23.190;2023-04-08T07:41:38;7.10;28.30
32215;DHT22;18708;53.124;23.190;2023-04-08T07:44:04;7.20;1.00
32215;DHT22;18708;53.124;23.190;2023-04-08T07:46:30;7.40;1.00
32215;DHT22;18708;53.124;23.190;2023-04-08T07:48:58;7.50;1.00
32215;DHT22;18708;53.124;23.190;2023-04-08T07:51:23;7.70;99.90
32215;DHT22;18708;53.124;23.190;2023-04-08T07:53:49;7.90;1.00
32215;DHT22;18708;53.124;23.190;2023-04-08T07:56:15;8.10;99.90
32215;DHT22;18708;53.124;23.190;2023-04-08T07:58:42;8.30;99.90
32215;DHT22;18708;53.124;23.190;2023-04-08T08:01:18;8.30;1.00
32215;DHT22;18708;53.124;23.190;2023-04-08T08:03:45;8.10;90.50
32215;DHT22;18708;53.124;23.190;2023-04-08T08:06:12;8.30;94.70
32215;DHT22;18708;53.124;23.190;2023-04-08T08:08:37;8.40;93.60
32215;DHT22;18708;53.124;23.190;2023-04-08T08:11:03;8.60;87.80
32215;DHT22;18708;53.124;23.190;2023-04-08T08:13:29;8.70;99.90
32215;DHT22;18708;53.124;23.190;2023-04-08T08:15:55;8.80;99.90
32215;DHT22;18708;53.124;23.190;2023-04-08T08:18:21;9.10;99.90
32215;DHT22;18708;53.124;23.190;2023-04-08T08:20:47;9.20;99.90
32215;DHT22;18708;53.124;23.190;2023-04-08T08:23:13;9.30;99.90
32215;DHT22;18708;53.124;23.190;2023-04-08T08:25:38;9.50;99.90
32215;DHT22;18708;53.124;23.190;2023-04-08T08:28:06;9.70;99.90
32215;DHT22;18708;53.124;23.190;2023-04-08T08:30:32;9.90;99.90
32215;DHT22;18708;53.124;23.190;2023-04-08T08:32:58;10.40;99.90
32215;DHT22;18708;53.124;23.190;2023-04-08T08:35:25;10.10;99.90
32215;DHT22;18708;53.124;23.190;2023-04-08T08:37:50;10.30;99.90
32215;DHT22;18708;53.124;23.190;2023-04-08T08:40:16;11.00;99.90
32215;DHT22;18708;53.124;23.190;2023-04-08T08:42:49;11.60;99.90
32215;DHT22;18708;53.124;23.190;2023-04-08T08:45:19;12.00;99.90
32215;DHT22;18708;53.124;23.190;2023-04-08T08:47:45;12.10;97.60
32215;DHT22;18708;53.124;23.190;2023-04-08T08:50:11;12.40;96.30
32215;DHT22;18708;53.124;23.190;2023-04-08T08:52:37;13.10;94.00
32215;DHT22;18708;53.124;23.190;2023-04-08T08:55:03;13.90;97.40
32215;DHT22;18708;53.124;23.190;2023-04-08T08:57:28;14.80;92.90
32215;DHT22;18708;53.124;23.190;2023-04-08T08:59:54;15.10;90.60
32215;DHT22;18708;53.124;23.190;2023-04-08T09:02:30;15.20;88.60
32215;DHT22;18708;53.124;23.190;2023-04-08T09:05:03;15.50;80.80
32215;DHT22;18708;53.124;23.190;2023-04-08T09:07:31;15.70;82.20
32215;DHT22;18708;53.124;23.190;2023-04-08T09:09:59;17.00;80.90
32215;DHT22;18708;53.124;23.190;2023-04-08T09:12:25;17.50;78.40
32215;DHT22;18708;53.124;23.190;2023-04-08T09:15:08;16.80;73.50
32215;DHT22;18708;53.124;23.190;2023-04-08T09:17:38;15.60;74.20
32215;DHT22;18708;53.124;23.190;2023-04-08T09:20:09;15.70;80.40
32215;DHT22;18708;53.124;23.190;2023-04-08T09:23:00;15.30;80.00
32215;DHT22;18708;53.124;23.190;2023-04-08T09:25:28;15.50;77.90
32215;DHT22;18708;53.124;23.190;2023-04-08T09:27:55;15.60;78.60
32215;DHT22;18708;53.124;23.190;2023-04-08T09:30:22;15.60;77.90
32215;DHT22;18708;53.124;23.190;2023-04-08T09:32:50;15.10;77.90
32215;DHT22;18708;53.124;23.190;2023-04-08T09:35:17;15.30;79.10
32215;DHT22;18708;53.124;23.190;2023-04-08T09:37:43;15.20;79.30
32215;DHT22;18708;53.124;23.190;2023-04-08T09:40:09;15.20;81.40
32215;DHT22;18708;53.124;23.190;2023-04-08T09:42:39;15.30;77.30
32215;DHT22;18708;53.124;23.190;2023-04-08T09:45:06;15.20;78.50
32215;DHT22;18708;53.124;23.190;2023-04-08T09:47:49;14.60;78.10
32215;DHT22;18708;53.124;23.190;2023-04-08T09:50:19;14.20;84.40
32215;DHT22;18708;53.124;23.190;2023-04-08T09:52:52;14.10;80.00
32215;DHT22;18708;53.124;23.190;2023-04-08T09:55:22;14.10;81.40
32215;DHT22;18708;53.124;23.190;2023-04-08T09:57:57;14.00;81.20
32215;DHT22;18708;53.124;23.190;2023-04-08T10:00:36;13.80;85.70
32215;DHT22;18708;53.124;23.190;2023-04-08T10:03:09;14.00;82.70
32215;DHT22;18708;53.124;23.190;2023-04-08T10:05:38;13.60;82.70
32215;DHT22;18708;53.124;23.190;2023-04-08T10:08:06;13.70;83.60
32215;DHT22;18708;53.124;23.190;2023-04-08T10:10:33;14.00;82.70
32215;DHT22;18708;53.124;23.190;2023-04-08T10:13:02;14.60;83.70
32215;DHT22;18708;53.124;23.190;2023-04-08T10:15:29;14.40;79.70
32215;DHT22;18708;53.124;23.190;2023-04-08T10:20:46;14.20;84.50
32215;DHT22;18708;53.124;23.190;2023-04-08T10:23:17;14.70;80.20
32215;DHT22;18708;53.124;23.190;2023-04-08T10:25:44;14.50;81.90
32215;DHT22;18708;53.124;23.190;2023-04-08T10:36:15;16.10;77.80
32215;DHT22;18708;53.124;23.190;2023-04-08T10:38:42;17.20;77.50
32215;DHT22;18708;53.124;23.190;2023-04-08T10:41:10;17.80;72.20
32215;DHT22;18708;53.124;23.190;2023-04-08T10:43:46;18.80;75.50
32215;DHT22;18708;53.124;23.190;2023-04-08T10:46:12;18.90;72.50
32215;DHT22;18708;53.124;23.190;2023-04-08T10:48:38;18.50;69.90
32215;DHT22;18708;53.124;23.190;2023-04-08T10:51:04;18.50;67.00
32215;DHT22;18708;53.124;23.190;2023-04-08T10:53:35;17.60;66.90
32215;DHT22;18708;53.124;23.190;2023-04-08T10:56:04;17.50;71.50
32215;DHT22;18708;53.124;23.190;2023-04-08T10:58:31;18.50;66.60
32215;DHT22;18708;53.124;23.190;2023-04-08T11:01:06;18.90;66.80
32215;DHT22;18708;53.124;23.190;2023-04-08T11:03:33;17.00;68.00
32215;DHT22;18708;53.124;23.190;2023-04-08T11:06:00;19.00;71.00
32215;DHT22;18708;53.124;23.190;2023-04-08T11:08:33;19.50;65.40
32215;DHT22;18708;53.124;23.190;2023-04-08T11:11:06;19.30;67.10
32215;DHT22;18708;53.124;23.190;2023-04-08T11:13:37;19.40;67.80
32215;DHT22;18708;53.124;23.190;2023-04-08T11:16:05;20.70;60.90
32215;DHT22;18708;53.124;23.190;2023-04-08T11:18:34;20.60;64.40
32215;DHT22;18708;53.124;23.190;2023-04-08T11:21:00;20.00;66.40
32215;DHT22;18708;53.124;23.190;2023-04-08T11:23:26;20.00;61.00
32215;DHT22;18708;53.124;23.190;2023-04-08T11:25:52;20.30;63.60
32215;DHT22;18708;53.124;23.190;2023-04-08T11:28:18;20.90;62.10
32215;DHT22;18708;53.124;23.190;2023-04-08T11:30:45;20.50;61.80
32215;DHT22;18708;53.124;23.190;2023-04-08T11:33:13;20.70;57.20
32215;DHT22;18708;53.124;23.190;2023-04-08T11:35:42;19.10;60.30
32215;DHT22;18708;53.124;23.190;2023-04-08T11:38:09;18.70;65.40
32215;DHT22;18708;53.124;23.190;2023-04-08T11:40:36;19.20;66.50
32215;DHT22;18708;53.124;23.190;2023-04-08T11:43:12;19.30;63.90
32215;DHT22;18708;53.124;23.190;2023-04-08T11:45:40;19.90;62.60
32215;DHT22;18708;53.124;23.190;2023-04-08T11:48:14;20.00;59.50
32215;DHT22;18708;53.124;23.190;2023-04-08T11:50:41;18.10;61.80
32215;DHT22;18708;53.124;23.190;2023-04-08T11:53:18;18.40;65.50
32215;DHT22;18708;53.124;23.190;2023-04-08T11:55:45;18.40;62.20
32215;DHT22;18708;53.124;23.190;2023-04-08T11:58:10;18.40;65.80
32215;DHT22;18708;53.124;23.190;2023-04-08T12:00:36;18.30;62.90
32215;DHT22;18708;53.124;23.190;2023-04-08T12:03:03;18.20;64.60
32215;DHT22;18708;53.124;23.190;2023-04-08T12:05:28;18.00;64.90
32215;DHT22;18708;53.124;23.190;2023-04-08T12:07:54;17.90;64.00
32215;DHT22;18708;53.124;23.190;2023-04-08T12:10:20;17.10;66.00
32215;DHT22;18708;53.124;23.190;2023-04-08T12:12:46;17.30;66.30
32215;DHT22;18708;53.124;23.190;2023-04-08T12:15:12;17.30;67.10
32215;DHT22;18708;53.124;23.190;2023-04-08T12:17:38;17.50;67.70
32215;DHT22;18708;53.124;23.190;2023-04-08T12:20:05;17.70;65.60
32215;DHT22;18708;53.124;23.190;2023-04-08T12:22:30;17.50;65.00
32215;DHT22;18708;53.124;23.190;2023-04-08T12:24:56;17.50;68.10
32215;DHT22;18708;53.124;23.190;2023-04-08T12:27:22;17.20;66.50
32215;DHT22;18708;53.124;23.190;2023-04-08T12:29:47;17.10;71.60
32215;DHT22;18708;53.124;23.190;2023-04-08T12:32:14;17.20;69.50
32215;DHT22;18708;53.124;23.190;2023-04-08T12:34:40;17.50;66.20
32215;DHT22;18708;53.124;23.190;2023-04-08T12:37:06;17.40;66.10
32215;DHT22;18708;53.124;23.190;2023-04-08T12:39:31;17.30;69.40
32215;DHT22;18708;53.124;23.190;2023-04-08T12:41:57;17.00;69.70
32215;DHT22;18708;53.124;23.190;2023-04-08T12:44:24;16.30;68.80
32215;DHT22;18708;53.124;23.190;2023-04-08T12:46:49;16.50;70.50
32215;DHT22;18708;53.124;23.190;2023-04-08T12:49:15;16.50;71.10
32215;DHT22;18708;53.124;23.190;2023-04-08T12:51:41;16.70;70.90
32215;DHT22;18708;53.124;23.190;2023-04-08T12:54:07;16.80;70.00
32215;DHT22;18708;53.124;23.190;2023-04-08T12:56:33;16.60;70.80
32215;DHT22;18708;53.124;23.190;2023-04-08T12:58:59;16.60;70.70
32215;DHT22;18708;53.124;23.190;2023-04-08T13:01:25;16.30;69.10
32215;DHT22;18708;53.124;23.190;2023-04-08T13:03:51;16.20;71.60
32215;DHT22;18708;53.124;23.190;2023-04-08T13:06:17;16.10;70.90
32215;DHT22;18708;53.124;23.190;2023-04-08T13:08:42;15.90;71.60
32215;DHT22;18708;53.124;23.190;2023-04-08T13:11:08;15.80;72.70
32215;DHT22;18708;53.124;23.190;2023-04-08T13:13:34;15.70;71.40
32215;DHT22;18708;53.124;23.190;2023-04-08T13:16:01;15.50;72.00
32215;DHT22;18708;53.124;23.190;2023-04-08T13:18:26;15.60;73.00
32215;DHT22;18708;53.124;23.190;2023-04-08T13:20:52;15.70;73.20
32215;DHT22;18708;53.124;23.190;2023-04-08T13:23:19;15.70;75.00
32215;DHT22;18708;53.124;23.190;2023-04-08T13:25:46;15.80;71.90
32215;DHT22;18708;53.124;23.190;2023-04-08T13:28:12;15.80;73.60
32215;DHT22;18708;53.124;23.190;2023-04-08T13:30:38;15.60;71.40
32215;DHT22;18708;53.124;23.190;2023-04-08T13:33:04;15.50;73.00
32215;DHT22;18708;53.124;23.190;2023-04-08T13:35:30;15.50;74.10
32215;DHT22;18708;53.124;23.190;2023-04-08T13:37:55;15.30;73.90
32215;DHT22;18708;53.124;23.190;2023-04-08T13:40:21;15.30;75.70
32215;DHT22;18708;53.124;23.190;2023-04-08T13:42:47;15.00;77.00
32215;DHT22;18708;53.124;23.190;2023-04-08T13:45:13;15.00;76.50
32215;DHT22;18708;53.124;23.190;2023-04-08T13:47:39;14.90;76.30
32215;DHT22;18708;53.124;23.190;2023-04-08T13:50:06;14.90;77.10
32215;DHT22;18708;53.124;23.190;2023-04-08T13:52:32;14.90;76.70
32215;DHT22;18708;53.124;23.190;2023-04-08T13:54:58;14.80;78.90
32215;DHT22;18708;53.124;23.190;2023-04-08T13:57:23;14.70;78.60
32215;DHT22;18708;53.124;23.190;2023-04-08T13:59:49;14.60;83.80
32215;DHT22;18708;53.124;23.190;2023-04-08T14:02:15;14.70;84.00
32215;DHT22;18708;53.124;23.190;2023-04-08T14:04:40;14.60;84.20
32215;DHT22;18708;53.124;23.190;2023-04-08T14:07:07;14.40;85.30
32215;DHT22;18708;53.124;23.190;2023-04-08T14:09:33;14.30;86.20
32215;DHT22;18708;53.124;23.190;2023-04-08T14:12:00;14.40;86.00
32215;DHT22;18708;53.124;23.190;2023-04-08T14:14:26;14.30;88.40
32215;DHT22;18708;53.124;23.190;2023-04-08T14:16:51;14.20;87.50
32215;DHT22;18708;53.124;23.190;2023-04-08T14:19:17;14.10;88.20
32215;DHT22;18708;53.124;23.190;2023-04-08T14:21:43;14.10;87.90
32215;DHT22;18708;53.124;23.190;2023-04-08T14:24:09;14.10;87.30
32215;DHT22;18708;53.124;23.190;2023-04-08T14:26:35;14.00;89.50
32215;DHT22;18708;53.124;23.190;2023-04-08T14:29:05;14.10;89.20
32215;DHT22;18708;53.124;23.190;2023-04-08T14:31:31;14.10;88.50
32215;DHT22;18708;53.124;23.190;2023-04-08T14:33:58;14.10;89.80
32215;DHT22;18708;53.124;23.190;2023-04-08T14:36:24;14.20;88.80
32215;DHT22;18708;53.124;23.190;2023-04-08T14:38:51;14.20;88.70
32215;DHT22;18708;53.124;23.190;2023-04-08T14:41:17;14.20;89.60
32215;DHT22;18708;53.124;23.190;2023-04-08T14:43:42;14.10;88.90
32215;DHT22;18708;53.124;23.190;2023-04-08T14:46:08;14.10;89.90
32215;DHT22;18708;53.124;23.190;2023-04-08T14:48:34;14.00;89.90
32215;DHT22;18708;53.124;23.190;2023-04-08T14:50:59;14.00;88.90
32215;DHT22;18708;53.124;23.190;2023-04-08T14:53:25;14.00;89.10
32215;DHT22;18708;53.124;23.190;2023-04-08T14:55:51;14.00;89.80
32215;DHT22;18708;53.124;23.190;2023-04-08T14:58:16;13.90;90.10
32215;DHT22;18708;53.124;23.190;2023-04-08T15:00:44;14.00;90.10
32215;DHT22;18708;53.124;23.190;2023-04-08T15:03:12;13.90;89.80
32215;DHT22;18708;53.124;23.190;2023-04-08T15:05:38;13.90;89.50
32215;DHT22;18708;53.124;23.190;2023-04-08T15:08:04;13.80;89.80
32215;DHT22;18708;53.124;23.190;2023-04-08T15:10:30;13.80;90.50
32215;DHT22;18708;53.124;23.190;2023-04-08T15:12:56;13.70;90.40
32215;DHT22;18708;53.124;23.190;2023-04-08T15:15:22;13.70;90.20
32215;DHT22;18708;53.124;23.190;2023-04-08T15:17:48;13.80;90.20
32215;DHT22;18708;53.124;23.190;2023-04-08T15:20:13;13.80;89.60
32215;DHT22;18708;53.124;23.190;2023-04-08T15:22:39;13.70;89.40
32215;DHT22;18708;53.124;23.190;2023-04-08T15:25:06;13.70;89.40
32215;DHT22;18708;53.124;23.190;2023-04-08T15:27:32;13.60;89.70
32215;DHT22;18708;53.124;23.190;2023-04-08T15:29:58;13.60;90.00
32215;DHT22;18708;53.124;23.190;2023-04-08T15:32:24;13.60;89.90
32215;DHT22;18708;53.124;23.190;2023-04-08T15:34:50;13.60;89.40